Station Historical Data
V 3.3 - 4-Mar-2016
Daily Summary for February 15, 2018 Units:  Metric    English   Both
« Previous Day
Next Day »
Daily Weekly Monthly Yearly Custom
  High: Low: Average:
Temperature: 31.1 °C 19.2 °C 24.6 °C
Dew Point: 23.8 °C 17.8 °C 20.3 °C
Humidity: 99% 45% 80%
Wind Speed: 7.2 km/h 0.0 km/h 1.3 km/h
Wind Gust: 15.8 km/h - -
Wind- - SSW
Pressure: 1013.8 hPa 1010.7 hPa -
Precipitation: 0.0 mm    
Historical Graphs
 
 
Tabular Data for February 15, 2018
Time Temperature Dew Point Pressure Wind Wind Speed Wind Gust Humidity Rain Rate (Hrly) Rain Day
00:04 21.2 °C 19.9 °C 1012.1 hPa Calm   3.5 km/h 92% 0.0 mm 0.0mm
00:10 21.2 °C 19.9 °C 1012.1 hPa Calm   3.5 km/h 92% 0.0 mm 0.0mm
00:16 21.2 °C 19.9 °C 1012.1 hPa Calm   1.1 km/h 92% 0.0 mm 0.0mm
00:22 21.2 °C 20.1 °C 1012.1 hPa Calm   1.1 km/h 93% 0.0 mm 0.0mm
00:28 21.2 °C 20.1 °C 1012.1 hPa Calm   1.1 km/h 93% 0.0 mm 0.0mm
00:34 21.2 °C 20.1 °C 1012.1 hPa Calm   2.6 km/h 93% 0.0 mm 0.0mm
00:40 21.1 °C 19.9 °C 1012.1 hPa Calm   2.6 km/h 93% 0.0 mm 0.0mm
00:46 21.1 °C 19.9 °C 1012.1 hPa Calm   3.5 km/h 93% 0.0 mm 0.0mm
00:52 21.1 °C 19.9 °C 1012.1 hPa Calm   3.5 km/h 93% 0.0 mm 0.0mm
00:58 21.2 °C 20.1 °C 1012.1 hPa West 1.1 km/h 3.5 km/h 93% 0.0 mm 0.0mm
01:04 21.2 °C 20.2 °C 1012.1 hPa Calm   3.5 km/h 94% 0.0 mm 0.0mm
01:10 21.1 °C 20.1 °C 1012.1 hPa West 1.1 km/h 5.0 km/h 94% 0.0 mm 0.0mm
01:16 21.0 °C 20.0 °C 1012.1 hPa Calm   5.0 km/h 94% 0.0 mm 0.0mm
01:22 20.8 °C 20.0 °C 1011.7 hPa Calm   2.6 km/h 95% 0.0 mm 0.0mm
01:28 20.7 °C 19.9 °C 1012.1 hPa Calm   2.6 km/h 95% 0.0 mm 0.0mm
01:34 20.6 °C 19.8 °C 1012.1 hPa Calm     95% 0.0 mm 0.0mm
01:40 20.6 °C 19.8 °C 1011.7 hPa Calm     95% 0.0 mm 0.0mm
01:46 20.6 °C 19.8 °C 1011.7 hPa Calm     95% 0.0 mm 0.0mm
01:52 20.6 °C 19.8 °C 1011.7 hPa Calm     95% 0.0 mm 0.0mm
01:58 20.6 °C 19.8 °C 1011.7 hPa Calm     95% 0.0 mm 0.0mm
02:04 20.7 °C 20.1 °C 1011.4 hPa Calm     96% 0.0 mm 0.0mm
02:10 20.7 °C 20.1 °C 1011.4 hPa Calm   1.1 km/h 96% 0.0 mm 0.0mm
02:16 20.8 °C 20.2 °C 1011.7 hPa Calm   2.6 km/h 96% 0.0 mm 0.0mm
02:22 20.8 °C 20.2 °C 1011.4 hPa Calm   1.1 km/h 96% 0.0 mm 0.0mm
02:28 20.8 °C 20.2 °C 1011.4 hPa Calm     96% 0.0 mm 0.0mm
02:34 20.8 °C 20.2 °C 1011.4 hPa Calm     96% 0.0 mm 0.0mm
02:40 20.8 °C 20.2 °C 1011.4 hPa Calm   1.1 km/h 96% 0.0 mm 0.0mm
02:46 20.8 °C 20.2 °C 1011.1 hPa Calm   1.1 km/h 96% 0.0 mm 0.0mm
02:52 20.8 °C 20.2 °C 1011.1 hPa Calm     96% 0.0 mm 0.0mm
02:58 20.8 °C 20.3 °C 1011.1 hPa Calm   1.1 km/h 97% 0.0 mm 0.0mm
03:04 20.8 °C 20.3 °C 1011.4 hPa Calm   1.1 km/h 97% 0.0 mm 0.0mm
03:10 20.7 °C 20.2 °C 1010.7 hPa Calm   2.6 km/h 97% 0.0 mm 0.0mm
03:16 20.7 °C 20.2 °C 1011.1 hPa Calm   1.1 km/h 97% 0.0 mm 0.0mm
03:22 20.7 °C 20.2 °C 1010.7 hPa Calm     97% 0.0 mm 0.0mm
03:28 20.7 °C 20.2 °C 1011.1 hPa Calm     97% 0.0 mm 0.0mm
03:34 20.7 °C 20.2 °C 1010.7 hPa Calm     97% 0.0 mm 0.0mm
03:40 20.7 °C 20.2 °C 1011.1 hPa Calm     97% 0.0 mm 0.0mm
03:46 20.8 °C 20.3 °C 1010.7 hPa Calm     97% 0.0 mm 0.0mm
03:52 20.8 °C 20.3 °C 1011.1 hPa Calm     97% 0.0 mm 0.0mm
03:58 20.8 °C 20.5 °C 1011.1 hPa Calm     98% 0.0 mm 0.0mm
04:04 20.8 °C 20.5 °C 1011.1 hPa Calm   1.1 km/h 98% 0.0 mm 0.0mm
04:10 20.7 °C 20.4 °C 1010.7 hPa Calm     98% 0.0 mm 0.0mm
04:16 20.7 °C 20.4 °C 1010.7 hPa Calm     98% 0.0 mm 0.0mm
04:22 20.7 °C 20.4 °C 1010.7 hPa Calm     98% 0.0 mm 0.0mm
04:28 20.6 °C 20.3 °C 1010.7 hPa Calm     98% 0.0 mm 0.0mm
04:34 20.6 °C 20.3 °C 1011.1 hPa Calm     98% 0.0 mm 0.0mm
04:40 20.5 °C 20.2 °C 1011.1 hPa Calm     98% 0.0 mm 0.0mm
04:46 20.4 °C 20.1 °C 1011.1 hPa Calm     98% 0.0 mm 0.0mm
04:52 20.4 °C 20.1 °C 1010.7 hPa Calm     98% 0.0 mm 0.0mm
04:58 20.4 °C 20.1 °C 1011.1 hPa Calm     98% 0.0 mm 0.0mm
05:04 20.4 °C 20.1 °C 1010.7 hPa Calm     98% 0.0 mm 0.0mm
05:10 20.4 °C 20.1 °C 1011.1 hPa Calm     98% 0.0 mm 0.0mm
05:16 20.4 °C 20.1 °C 1010.7 hPa Calm     98% 0.0 mm 0.0mm
05:22 20.3 °C 20.0 °C 1011.1 hPa Calm     98% 0.0 mm 0.0mm
05:28 20.2 °C 19.9 °C 1011.4 hPa Calm     98% 0.0 mm 0.0mm
05:34 19.8 °C 19.7 °C 1011.1 hPa Calm     99% 0.0 mm 0.0mm
05:40 19.6 °C 19.4 °C 1011.4 hPa Calm     99% 0.0 mm 0.0mm
05:46 19.5 °C 19.3 °C 1011.4 hPa Calm     99% 0.0 mm 0.0mm
05:52 19.4 °C 19.3 °C 1011.1 hPa Calm     99% 0.0 mm 0.0mm
06:04 19.2 °C 19.1 °C 1011.4 hPa Calm     99% 0.0 mm 0.0mm
06:10 19.3 °C 19.2 °C 1011.4 hPa Calm     99% 0.0 mm 0.0mm
06:16 19.4 °C 19.3 °C 1011.7 hPa Calm     99% 0.0 mm 0.0mm
06:22 19.5 °C 19.3 °C 1011.7 hPa Calm     99% 0.0 mm 0.0mm
06:28 19.6 °C 19.4 °C 1011.7 hPa Calm     99% 0.0 mm 0.0mm
06:34 19.8 °C 19.7 °C 1011.7 hPa Calm     99% 0.0 mm 0.0mm
06:40 20.0 °C 19.8 °C 1012.1 hPa Calm     99% 0.0 mm 0.0mm
06:46 20.1 °C 19.9 °C 1012.1 hPa Calm     99% 0.0 mm 0.0mm
06:52 20.1 °C 19.9 °C 1012.1 hPa Calm     99% 0.0 mm 0.0mm
06:58 20.1 °C 19.9 °C 1011.7 hPa Calm     99% 0.0 mm 0.0mm
07:04 20.1 °C 19.9 °C 1012.1 hPa Calm     99% 0.0 mm 0.0mm
07:10 20.3 °C 20.2 °C 1012.1 hPa Calm     99% 0.0 mm 0.0mm
07:16 20.4 °C 20.3 °C 1012.1 hPa Calm     99% 0.0 mm 0.0mm
07:22 20.5 °C 20.3 °C 1012.1 hPa Calm     99% 0.0 mm 0.0mm
07:28 20.6 °C 20.4 °C 1012.1 hPa Calm     99% 0.0 mm 0.0mm
07:34 20.7 °C 20.6 °C 1012.1 hPa Calm     99% 0.0 mm 0.0mm
07:40 20.8 °C 20.7 °C 1012.1 hPa Calm     99% 0.0 mm 0.0mm
07:46 20.9 °C 20.8 °C 1012.1 hPa Calm     99% 0.0 mm 0.0mm
07:52 21.0 °C 20.7 °C 1012.4 hPa Calm     98% 0.0 mm 0.0mm
07:58 21.3 °C 21.0 °C 1012.4 hPa Calm     98% 0.0 mm 0.0mm
08:04 21.3 °C 21.0 °C 1012.4 hPa Calm     98% 0.0 mm 0.0mm
08:10 21.3 °C 21.0 °C 1012.8 hPa Calm     98% 0.0 mm 0.0mm
08:16 21.3 °C 21.0 °C 1012.4 hPa Calm     98% 0.0 mm 0.0mm
08:22 21.6 °C 21.3 °C 1012.8 hPa Calm     98% 0.0 mm 0.0mm
08:28 21.6 °C 21.3 °C 1012.8 hPa Calm     98% 0.0 mm 0.0mm
08:34 21.6 °C 21.3 °C 1012.8 hPa Calm     98% 0.0 mm 0.0mm
08:40 22.0 °C 21.5 °C 1012.8 hPa Calm     97% 0.0 mm 0.0mm
08:46 22.4 °C 21.9 °C 1012.8 hPa Calm   1.1 km/h 97% 0.0 mm 0.0mm
08:52 22.5 °C 22.0 °C 1012.8 hPa Calm   1.1 km/h 97% 0.0 mm 0.0mm
08:58 22.6 °C 22.1 °C 1012.8 hPa Calm   1.1 km/h 97% 0.0 mm 0.0mm
09:04 22.8 °C 22.3 °C 1012.8 hPa Calm   2.6 km/h 97% 0.0 mm 0.0mm
09:10 23.1 °C 22.9 °C 1012.8 hPa Calm   2.6 km/h 99% 0.0 mm 0.0mm
09:16 23.5 °C 23.4 °C 1012.8 hPa Calm   2.6 km/h 99% 0.0 mm 0.0mm
09:22 23.7 °C 23.6 °C 1012.8 hPa Calm   2.6 km/h 99% 0.0 mm 0.0mm
09:28 24.1 °C 23.6 °C 1013.1 hPa Calm   2.6 km/h 97% 0.0 mm 0.0mm
09:34 24.4 °C 23.8 °C 1012.8 hPa NNE 1.1 km/h 2.6 km/h 96% 0.0 mm 0.0mm
09:40 24.5 °C 23.7 °C 1012.8 hPa Calm   3.5 km/h 95% 0.0 mm 0.0mm
09:46 25.0 °C 23.7 °C 1012.8 hPa NW 2.6 km/h 3.5 km/h 92% 0.0 mm 0.0mm
09:52 25.0 °C 23.3 °C 1012.8 hPa NW 1.1 km/h 3.5 km/h 90% 0.0 mm 0.0mm
09:58 24.8 °C 23.1 °C 1012.8 hPa Calm   3.5 km/h 90% 0.0 mm 0.0mm
10:04 25.8 °C 23.5 °C 1012.8 hPa Calm   5.0 km/h 87% 0.0 mm 0.0mm
10:10 27.4 °C 23.7 °C 1012.8 hPa NNW 3.5 km/h 5.0 km/h 80% 0.0 mm 0.0mm
10:16 27.9 °C 22.2 °C 1012.8 hPa WNW 1.1 km/h 6.1 km/h 71% 0.0 mm 0.0mm
10:22 28.6 °C 22.6 °C 1012.8 hPa WNW 1.1 km/h 6.1 km/h 70% 0.0 mm 0.0mm
10:28 29.2 °C 21.7 °C 1012.8 hPa North 1.1 km/h 5.0 km/h 64% 0.0 mm 0.0mm
10:34 29.6 °C 21.8 °C 1012.8 hPa North 3.5 km/h 6.1 km/h 63% 0.0 mm 0.0mm
10:40 29.2 °C 21.4 °C 1012.8 hPa North 2.6 km/h 7.2 km/h 63% 0.0 mm 0.0mm
10:46 28.7 °C 21.8 °C 1012.8 hPa NE 3.5 km/h 7.2 km/h 66% 0.0 mm 0.0mm
10:52 28.7 °C 21.5 °C 1012.8 hPa NNE 2.6 km/h 7.2 km/h 65% 0.0 mm 0.0mm
10:58 28.7 °C 21.5 °C 1012.8 hPa North 1.1 km/h 8.7 km/h 65% 0.0 mm 0.0mm
11:04 28.6 °C 21.4 °C 1012.8 hPa North 2.6 km/h 8.7 km/h 65% 0.0 mm 0.0mm
11:10 28.4 °C 21.9 °C 1012.8 hPa WNW 1.1 km/h 6.1 km/h 68% 0.0 mm 0.0mm
11:16 28.7 °C 21.8 °C 1012.8 hPa NNW 5.0 km/h 8.7 km/h 66% 0.0 mm 0.0mm
11:22 28.4 °C 21.7 °C 1012.8 hPa NNW 2.6 km/h 8.7 km/h 67% 0.0 mm 0.0mm
11:28 28.3 °C 21.4 °C 1012.8 hPa NNE 5.0 km/h 8.7 km/h 66% 0.0 mm 0.0mm
11:34 28.4 °C 21.4 °C 1012.8 hPa NE 2.6 km/h 8.7 km/h 66% 0.0 mm 0.0mm
11:40 28.8 °C 21.3 °C 1012.8 hPa North 1.1 km/h 7.2 km/h 64% 0.0 mm 0.0mm
11:46 29.2 °C 21.4 °C 1012.8 hPa NW 3.5 km/h 9.7 km/h 63% 0.0 mm 0.0mm
11:52 28.9 °C 21.4 °C 1012.8 hPa NNW 2.6 km/h 9.7 km/h 64% 0.0 mm 0.0mm
11:58 29.0 °C 21.6 °C 1012.8 hPa North 6.1 km/h 7.2 km/h 64% 0.0 mm 0.0mm
12:04 28.6 °C 21.7 °C 1013.1 hPa North 3.5 km/h 9.7 km/h 66% 0.0 mm 0.0mm
12:10 28.5 °C 21.8 °C 1012.8 hPa NW 2.6 km/h 9.7 km/h 67% 0.0 mm 0.0mm
12:16 29.2 °C 21.7 °C 1012.8 hPa North 2.6 km/h 8.7 km/h 64% 0.0 mm 0.0mm
12:22 29.1 °C 21.4 °C 1012.8 hPa NNE 2.6 km/h 13.4 km/h 63% 0.0 mm 0.0mm
12:28 29.1 °C 21.4 °C 1012.8 hPa NE 7.2 km/h 13.4 km/h 63% 0.0 mm 0.0mm
12:34 28.6 °C 20.9 °C 1012.8 hPa North 5.0 km/h 11.1 km/h 63% 0.0 mm 0.0mm
12:40 28.4 °C 21.4 °C 1012.8 hPa North 3.5 km/h 9.7 km/h 66% 0.0 mm 0.0mm
12:46 28.7 °C 21.5 °C 1012.8 hPa NNW 1.1 km/h 8.7 km/h 65% 0.0 mm 0.0mm
12:52 29.2 °C 21.4 °C 1012.8 hPa North 3.5 km/h 8.7 km/h 63% 0.0 mm 0.0mm
12:58 29.5 °C 21.5 °C 1012.8 hPa NW 2.6 km/h 8.7 km/h 62% 0.0 mm 0.0mm
13:04 29.3 °C 21.1 °C 1012.8 hPa West 2.6 km/h 8.7 km/h 61% 0.0 mm 0.0mm
13:10 28.9 °C 20.1 °C 1012.8 hPa West 5.0 km/h 9.7 km/h 59% 0.0 mm 0.0mm
13:16 28.3 °C 19.3 °C 1012.8 hPa WNW 3.5 km/h 9.7 km/h 58% 0.0 mm 0.0mm
13:22 28.4 °C 19.7 °C 1012.8 hPa West 3.5 km/h 9.7 km/h 59% 0.0 mm 0.0mm
13:28 28.5 °C 20.0 °C 1012.8 hPa SSW 3.5 km/h 11.1 km/h 60% 0.0 mm 0.0mm
13:34 27.9 °C 19.7 °C 1012.8 hPa West 3.5 km/h 12.2 km/h 61% 0.0 mm 0.0mm
13:40 27.9 °C 20.2 °C 1012.8 hPa West 2.6 km/h 12.2 km/h 63% 0.0 mm 0.0mm
13:46 28.0 °C 19.8 °C 1012.8 hPa WNW 3.5 km/h 9.7 km/h 61% 0.0 mm 0.0mm
13:52 27.8 °C 19.9 °C 1012.8 hPa WNW 3.5 km/h 9.7 km/h 62% 0.0 mm 0.0mm
13:58 28.2 °C 20.0 °C 1012.8 hPa WNW 3.5 km/h 9.7 km/h 61% 0.0 mm 0.0mm
14:04 28.5 °C 20.3 °C 1012.8 hPa West 2.6 km/h 9.7 km/h 61% 0.0 mm 0.0mm
14:10 29.3 °C 19.9 °C 1012.8 hPa WSW 3.5 km/h 8.7 km/h 57% 0.0 mm 0.0mm
14:16 29.1 °C 19.7 °C 1012.8 hPa NW 2.6 km/h 9.7 km/h 57% 0.0 mm 0.0mm
14:22 28.9 °C 19.6 °C 1012.8 hPa NW 2.6 km/h 9.7 km/h 57% 0.0 mm 0.0mm
14:28 28.6 °C 20.1 °C 1012.8 hPa WSW 6.1 km/h 12.2 km/h 60% 0.0 mm 0.0mm
14:34 28.3 °C 20.1 °C 1012.8 hPa WNW 2.6 km/h 9.7 km/h 61% 0.0 mm 0.0mm
14:40 28.4 °C 20.2 °C 1012.8 hPa WNW 3.5 km/h 9.7 km/h 61% 0.0 mm 0.0mm
14:46 28.4 °C 20.4 °C 1012.8 hPa West 6.1 km/h 9.7 km/h 62% 0.0 mm 0.0mm
14:52 28.6 °C 20.4 °C 1012.4 hPa WNW 1.1 km/h 9.7 km/h 61% 0.0 mm 0.0mm
14:58 29.4 °C 20.6 °C 1012.8 hPa NW 3.5 km/h 8.7 km/h 59% 0.0 mm 0.0mm
15:04 29.1 °C 20.6 °C 1012.4 hPa WNW 3.5 km/h 9.7 km/h 60% 0.0 mm 0.0mm
15:10 29.6 °C 19.9 °C 1012.4 hPa West 3.5 km/h 9.7 km/h 56% 0.0 mm 0.0mm
15:16 29.9 °C 20.2 °C 1012.4 hPa North 2.6 km/h 7.2 km/h 56% 0.0 mm 0.0mm
15:22 30.4 °C 20.1 °C 1012.4 hPa North 1.1 km/h 8.7 km/h 54% 0.0 mm 0.0mm
15:28 30.6 °C 19.9 °C 1012.4 hPa WNW 5.0 km/h 9.7 km/h 53% 0.0 mm 0.0mm
15:34 30.0 °C 18.8 °C 1012.4 hPa NW 5.0 km/h 9.7 km/h 51% 0.0 mm 0.0mm
15:40 29.7 °C 18.8 °C 1012.4 hPa NNE 3.5 km/h 15.8 km/h 52% 0.0 mm 0.0mm
15:46 30.0 °C 19.7 °C 1012.4 hPa ENE 2.6 km/h 15.8 km/h 54% 0.0 mm 0.0mm
15:52 30.7 °C 19.4 °C 1012.4 hPa North 5.0 km/h 8.7 km/h 51% 0.0 mm 0.0mm
15:58 30.1 °C 18.6 °C 1012.1 hPa NW 5.0 km/h 9.7 km/h 50% 0.0 mm 0.0mm
16:04 29.7 °C 19.1 °C 1012.4 hPa WNW 2.6 km/h 9.7 km/h 53% 0.0 mm 0.0mm
16:10 30.0 °C 19.4 °C 1012.4 hPa NNW 3.5 km/h 8.7 km/h 53% 0.0 mm 0.0mm
16:16 30.4 °C 19.8 °C 1012.4 hPa NNW 3.5 km/h 8.7 km/h 53% 0.0 mm 0.0mm
16:22 30.3 °C 19.1 °C 1012.1 hPa North 2.6 km/h 8.7 km/h 51% 0.0 mm 0.0mm
16:28 30.4 °C 18.8 °C 1012.1 hPa NNW 2.6 km/h 7.2 km/h 50% 0.0 mm 0.0mm
16:34 30.8 °C 19.2 °C 1012.4 hPa NNW 2.6 km/h 9.7 km/h 50% 0.0 mm 0.0mm
16:40 30.9 °C 19.3 °C 1012.1 hPa NE 2.6 km/h 9.7 km/h 50% 0.0 mm 0.0mm
16:46 30.9 °C 19.3 °C 1012.1 hPa SSW 6.1 km/h 7.2 km/h 50% 0.0 mm 0.0mm
16:52 30.6 °C 19.7 °C 1012.1 hPa WSW 2.6 km/h 7.2 km/h 52% 0.0 mm 0.0mm
16:58 30.5 °C 19.6 °C 1012.1 hPa WNW 3.5 km/h 8.7 km/h 52% 0.0 mm 0.0mm
17:04 30.7 °C 19.1 °C 1012.4 hPa NNE 1.1 km/h 8.7 km/h 50% 0.0 mm 0.0mm
17:10 31.1 °C 19.5 °C 1012.1 hPa NNE 3.5 km/h 8.7 km/h 50% 0.0 mm 0.0mm
17:16 30.5 °C 19.3 °C 1012.1 hPa NNW 2.6 km/h 8.7 km/h 51% 0.0 mm 0.0mm
17:22 30.2 °C 18.7 °C 1012.1 hPa North 3.5 km/h 9.7 km/h 50% 0.0 mm 0.0mm
17:28 30.1 °C 18.9 °C 1011.7 hPa North 2.6 km/h 9.7 km/h 51% 0.0 mm 0.0mm
17:34 30.4 °C 19.2 °C 1012.1 hPa NNE 3.5 km/h 8.7 km/h 51% 0.0 mm 0.0mm
17:40 30.7 °C 19.1 °C 1012.1 hPa NNE 6.1 km/h 8.7 km/h 50% 0.0 mm 0.0mm
17:46 30.7 °C 18.8 °C 1012.1 hPa North 3.5 km/h 8.7 km/h 49% 0.0 mm 0.0mm
17:52 30.8 °C 18.6 °C 1012.1 hPa WNW 3.5 km/h 6.1 km/h 48% 0.0 mm 0.0mm
17:58 31.1 °C 17.8 °C 1012.1 hPa North 3.5 km/h 6.1 km/h 45% 0.0 mm 0.0mm
18:04 30.3 °C 18.4 °C 1012.1 hPa NNE 3.5 km/h 7.2 km/h 49% 0.0 mm 0.0mm
18:10 30.4 °C 18.5 °C 1012.1 hPa NE 1.1 km/h 7.2 km/h 49% 0.0 mm 0.0mm
18:16 30.4 °C 19.2 °C 1012.1 hPa NNW 1.1 km/h 6.1 km/h 51% 0.0 mm 0.0mm
18:22 31.1 °C 19.2 °C 1011.7 hPa NNW 2.6 km/h 6.1 km/h 49% 0.0 mm 0.0mm
18:28 31.0 °C 18.7 °C 1011.7 hPa North 1.1 km/h 7.2 km/h 48% 0.0 mm 0.0mm
18:34 30.7 °C 19.4 °C 1011.7 hPa NNE 6.1 km/h 8.7 km/h 51% 0.0 mm 0.0mm
18:40 30.5 °C 19.3 °C 1012.1 hPa North 2.6 km/h 8.7 km/h 51% 0.0 mm 0.0mm
18:46 30.2 °C 18.7 °C 1012.1 hPa North 1.1 km/h 6.1 km/h 50% 0.0 mm 0.0mm
18:52 29.7 °C 18.8 °C 1012.1 hPa NE 3.5 km/h 8.7 km/h 52% 0.0 mm 0.0mm
18:58 28.4 °C 19.1 °C 1012.1 hPa East 2.6 km/h 8.7 km/h 57% 0.0 mm 0.0mm
19:04 27.5 °C 18.8 °C 1012.1 hPa NNW 1.1 km/h 7.2 km/h 59% 0.0 mm 0.0mm
19:10 26.0 °C 18.7 °C 1011.4 hPa North 1.1 km/h 6.1 km/h 64% 0.0 mm 0.0mm
19:16 26.2 °C 19.4 °C 1011.4 hPa NE 1.1 km/h 6.1 km/h 66% 0.0 mm 0.0mm
19:22 27.4 °C 19.5 °C 1011.7 hPa Calm   6.1 km/h 62% 0.0 mm 0.0mm
19:28 27.7 °C 19.3 °C 1012.4 hPa NNE 1.1 km/h 3.5 km/h 60% 0.0 mm 0.0mm
19:34 26.0 °C 18.7 °C 1012.4 hPa Calm   6.1 km/h 64% 0.0 mm 0.0mm
19:40 24.9 °C 19.3 °C 1012.4 hPa NNE 1.1 km/h 6.1 km/h 71% 0.0 mm 0.0mm
19:46 24.1 °C 19.0 °C 1012.4 hPa North 1.1 km/h 3.5 km/h 73% 0.0 mm 0.0mm
19:52 23.6 °C 19.3 °C 1012.4 hPa NNE 1.1 km/h 3.5 km/h 77% 0.0 mm 0.0mm
19:58 23.2 °C 19.6 °C 1012.4 hPa Calm   6.1 km/h 80% 0.0 mm 0.0mm
20:04 23.0 °C 19.6 °C 1012.8 hPa NNW 1.1 km/h 6.1 km/h 81% 0.0 mm 0.0mm
20:10 22.9 °C 19.5 °C 1012.8 hPa NNE 1.1 km/h 3.5 km/h 81% 0.0 mm 0.0mm
20:16 22.7 °C 19.5 °C 1012.8 hPa Calm   3.5 km/h 82% 0.0 mm 0.0mm
20:22 22.5 °C 19.5 °C 1013.1 hPa Calm   3.5 km/h 83% 0.0 mm 0.0mm
20:28 22.3 °C 19.7 °C 1012.8 hPa NNE 1.1 km/h 3.5 km/h 85% 0.0 mm 0.0mm
20:34 22.4 °C 19.9 °C 1013.1 hPa North 2.6 km/h 5.0 km/h 86% 0.0 mm 0.0mm
20:40 22.5 °C 20.2 °C 1013.1 hPa North 1.1 km/h 5.0 km/h 87% 0.0 mm 0.0mm
20:46 22.5 °C 20.2 °C 1013.1 hPa North 1.1 km/h 5.0 km/h 87% 0.0 mm 0.0mm
20:52 22.4 °C 20.2 °C 1013.1 hPa Calm   3.5 km/h 87% 0.0 mm 0.0mm
20:58 22.3 °C 20.2 °C 1013.4 hPa NNW 2.6 km/h 3.5 km/h 88% 0.0 mm 0.0mm
21:04 22.3 °C 20.2 °C 1013.4 hPa Calm   3.5 km/h 88% 0.0 mm 0.0mm
21:10 22.2 °C 20.1 °C 1013.1 hPa Calm   2.6 km/h 88% 0.0 mm 0.0mm
21:16 22.2 °C 20.1 °C 1013.4 hPa Calm   3.5 km/h 88% 0.0 mm 0.0mm
21:22 22.2 °C 20.1 °C 1013.1 hPa NW 1.1 km/h 5.0 km/h 88% 0.0 mm 0.0mm
21:28 22.4 °C 20.3 °C 1013.4 hPa Calm   5.0 km/h 88% 0.0 mm 0.0mm
21:34 22.4 °C 20.3 °C 1013.4 hPa Calm   3.5 km/h 88% 0.0 mm 0.0mm
21:40 22.4 °C 20.3 °C 1013.4 hPa Calm   3.5 km/h 88% 0.0 mm 0.0mm
21:46 22.5 °C 20.4 °C 1013.4 hPa Calm   3.5 km/h 88% 0.0 mm 0.0mm
21:52 22.5 °C 20.4 °C 1013.8 hPa Calm   2.6 km/h 88% 0.0 mm 0.0mm
22:00 22.6 °C 20.6 °C 1013.8 hPa Calm   2.6 km/h 88% 0.0 mm 0.0mm
22:06 22.6 °C 20.6 °C 1013.8 hPa North 1.1 km/h 3.5 km/h 88% 0.0 mm 0.0mm
22:12 22.6 °C 20.6 °C 1013.4 hPa NNE 2.6 km/h 3.5 km/h 88% 0.0 mm 0.0mm
22:18 22.6 °C 20.6 °C 1013.4 hPa Calm   3.5 km/h 88% 0.0 mm 0.0mm
22:24 22.6 °C 20.6 °C 1013.8 hPa Calm   3.5 km/h 88% 0.0 mm 0.0mm
22:30 22.6 °C 20.6 °C 1013.8 hPa Calm   2.6 km/h 88% 0.0 mm 0.0mm
22:36 22.6 °C 20.6 °C 1013.8 hPa Calm   3.5 km/h 88% 0.0 mm 0.0mm
22:42 22.6 °C 20.6 °C 1013.8 hPa Calm   5.0 km/h 88% 0.0 mm 0.0mm
22:48 22.5 °C 20.4 °C 1013.4 hPa North 1.1 km/h 5.0 km/h 88% 0.0 mm 0.0mm
22:54 22.4 °C 20.5 °C 1013.8 hPa Calm   2.6 km/h 89% 0.0 mm 0.0mm
23:00 22.2 °C 20.3 °C 1013.4 hPa Calm     89% 0.0 mm 0.0mm
23:06 22.1 °C 20.2 °C 1013.4 hPa Calm     89% 0.0 mm 0.0mm
23:12 21.8 °C 20.1 °C 1013.4 hPa Calm   2.6 km/h 90% 0.0 mm 0.0mm
23:18 21.8 °C 20.1 °C 1013.8 hPa Calm   2.6 km/h 90% 0.0 mm 0.0mm
23:24 21.8 °C 20.3 °C 1013.8 hPa Calm   3.5 km/h 91% 0.0 mm 0.0mm
23:30 21.8 °C 20.3 °C 1013.4 hPa Calm   3.5 km/h 91% 0.0 mm 0.0mm
23:36 21.7 °C 20.2 °C 1013.8 hPa Calm   2.6 km/h 91% 0.0 mm 0.0mm
23:42 21.6 °C 20.1 °C 1013.8 hPa Calm   2.6 km/h 91% 0.0 mm 0.0mm
23:48 21.5 °C 20.0 °C 1013.8 hPa Calm   2.6 km/h 91% 0.0 mm 0.0mm
23:54 21.5 °C 20.0 °C 1013.8 hPa Calm   3.5 km/h 91% 0.0 mm 0.0mm
Opotiki Town Weather
Compliments of Weather Underground - memory used : 2 mb

NZ Local Weather Forum      Cumulus Top Weather Sites      New Zealand Top40 Weather Station Sites      Flag Counter